sensor_id;sensor_type;location;lat;lon;timestamp;P1;durP1;ratioP1;P2;durP2;ratioP2
11962;SDS011;62678;52.130;5.584;2024-01-25T00:01:53;32.97;;;5.97;;
11962;SDS011;62678;52.130;5.584;2024-01-25T00:04:20;36.15;;;5.38;;
11962;SDS011;62678;52.130;5.584;2024-01-25T00:06:47;38.45;;;6.97;;
11962;SDS011;62678;52.130;5.584;2024-01-25T00:09:14;24.73;;;5.25;;
11962;SDS011;62678;52.130;5.584;2024-01-25T00:11:43;35.55;;;6.05;;
11962;SDS011;62678;52.130;5.584;2024-01-25T00:14:11;27.80;;;6.10;;
11962;SDS011;62678;52.130;5.584;2024-01-25T00:16:40;31.92;;;5.55;;
11962;SDS011;62678;52.130;5.584;2024-01-25T00:19:07;28.70;;;6.00;;
11962;SDS011;62678;52.130;5.584;2024-01-25T00:21:35;32.25;;;5.40;;
11962;SDS011;62678;52.130;5.584;2024-01-25T00:24:02;38.75;;;5.78;;
11962;SDS011;62678;52.130;5.584;2024-01-25T00:26:29;38.63;;;6.80;;
11962;SDS011;62678;52.130;5.584;2024-01-25T00:28:58;32.80;;;5.60;;
11962;SDS011;62678;52.130;5.584;2024-01-25T00:31:25;38.90;;;5.68;;
11962;SDS011;62678;52.130;5.584;2024-01-25T00:33:52;26.00;;;6.72;;
11962;SDS011;62678;52.130;5.584;2024-01-25T00:36:20;28.73;;;5.13;;
11962;SDS011;62678;52.130;5.584;2024-01-25T00:38:47;27.23;;;5.38;;
11962;SDS011;62678;52.130;5.584;2024-01-25T00:41:15;38.45;;;5.60;;
11962;SDS011;62678;52.130;5.584;2024-01-25T00:43:44;36.72;;;6.07;;
11962;SDS011;62678;52.130;5.584;2024-01-25T00:46:13;37.83;;;6.45;;
11962;SDS011;62678;52.130;5.584;2024-01-25T00:48:41;29.65;;;5.13;;
11962;SDS011;62678;52.130;5.584;2024-01-25T00:51:08;43.17;;;6.75;;
11962;SDS011;62678;52.130;5.584;2024-01-25T00:53:40;37.15;;;5.75;;
11962;SDS011;62678;52.130;5.584;2024-01-25T00:56:08;27.90;;;5.97;;
11962;SDS011;62678;52.130;5.584;2024-01-25T00:58:35;38.80;;;5.65;;
11962;SDS011;62678;52.130;5.584;2024-01-25T01:01:03;38.92;;;6.20;;
11962;SDS011;62678;52.130;5.584;2024-01-25T01:03:32;34.92;;;5.70;;
11962;SDS011;62678;52.130;5.584;2024-01-25T01:05:59;32.65;;;5.40;;
11962;SDS011;62678;52.130;5.584;2024-01-25T01:08:27;38.85;;;5.25;;
11962;SDS011;62678;52.130;5.584;2024-01-25T01:10:54;35.38;;;5.82;;
11962;SDS011;62678;52.130;5.584;2024-01-25T01:13:21;39.45;;;5.50;;
11962;SDS011;62678;52.130;5.584;2024-01-25T01:15:49;35.50;;;5.70;;
11962;SDS011;62678;52.130;5.584;2024-01-25T01:18:16;37.50;;;5.72;;
11962;SDS011;62678;52.130;5.584;2024-01-25T01:20:44;36.40;;;5.68;;
11962;SDS011;62678;52.130;5.584;2024-01-25T01:23:11;31.80;;;5.80;;
11962;SDS011;62678;52.130;5.584;2024-01-25T01:25:39;34.67;;;6.55;;
11962;SDS011;62678;52.130;5.584;2024-01-25T01:28:06;39.47;;;6.43;;
11962;SDS011;62678;52.130;5.584;2024-01-25T01:30:33;30.10;;;5.07;;
11962;SDS011;62678;52.130;5.584;2024-01-25T01:33:00;35.80;;;5.68;;
11962;SDS011;62678;52.130;5.584;2024-01-25T01:35:27;35.85;;;5.70;;
11962;SDS011;62678;52.130;5.584;2024-01-25T01:37:56;39.80;;;5.85;;
11962;SDS011;62678;52.130;5.584;2024-01-25T01:40:23;38.10;;;5.85;;
11962;SDS011;62678;52.130;5.584;2024-01-25T01:42:50;37.35;;;6.00;;
11962;SDS011;62678;52.130;5.584;2024-01-25T01:45:18;36.47;;;5.90;;
11962;SDS011;62678;52.130;5.584;2024-01-25T01:47:45;43.33;;;6.13;;
11962;SDS011;62678;52.130;5.584;2024-01-25T01:50:12;40.63;;;6.78;;
11962;SDS011;62678;52.130;5.584;2024-01-25T01:52:40;33.22;;;5.97;;
11962;SDS011;62678;52.130;5.584;2024-01-25T01:55:09;39.38;;;5.63;;
11962;SDS011;62678;52.130;5.584;2024-01-25T01:57:36;31.75;;;5.60;;
11962;SDS011;62678;52.130;5.584;2024-01-25T02:00:04;38.13;;;6.00;;
11962;SDS011;62678;52.130;5.584;2024-01-25T02:02:34;30.42;;;5.35;;
11962;SDS011;62678;52.130;5.584;2024-01-25T02:05:01;30.77;;;6.15;;
11962;SDS011;62678;52.130;5.584;2024-01-25T02:07:28;37.30;;;6.15;;
11962;SDS011;62678;52.130;5.584;2024-01-25T02:09:57;43.20;;;5.63;;
11962;SDS011;62678;52.130;5.584;2024-01-25T02:12:25;42.72;;;5.70;;
11962;SDS011;62678;52.130;5.584;2024-01-25T02:14:52;41.67;;;6.43;;
11962;SDS011;62678;52.130;5.584;2024-01-25T02:17:20;42.38;;;6.05;;
11962;SDS011;62678;52.130;5.584;2024-01-25T02:19:47;31.35;;;6.25;;
11962;SDS011;62678;52.130;5.584;2024-01-25T02:22:16;34.17;;;6.18;;
11962;SDS011;62678;52.130;5.584;2024-01-25T02:24:43;34.80;;;5.63;;
11962;SDS011;62678;52.130;5.584;2024-01-25T02:27:10;34.72;;;5.68;;
11962;SDS011;62678;52.130;5.584;2024-01-25T02:29:37;43.25;;;7.22;;
11962;SDS011;62678;52.130;5.584;2024-01-25T02:32:05;36.38;;;6.18;;
11962;SDS011;62678;52.130;5.584;2024-01-25T02:34:32;35.00;;;6.15;;
11962;SDS011;62678;52.130;5.584;2024-01-25T02:37:00;42.08;;;6.53;;
11962;SDS011;62678;52.130;5.584;2024-01-25T02:39:29;43.78;;;6.32;;
11962;SDS011;62678;52.130;5.584;2024-01-25T02:41:56;43.03;;;6.00;;
11962;SDS011;62678;52.130;5.584;2024-01-25T02:44:23;50.60;;;6.60;;
11962;SDS011;62678;52.130;5.584;2024-01-25T02:46:50;47.78;;;6.22;;
11962;SDS011;62678;52.130;5.584;2024-01-25T02:49:17;42.67;;;6.22;;
11962;SDS011;62678;52.130;5.584;2024-01-25T02:51:44;44.08;;;6.25;;
11962;SDS011;62678;52.130;5.584;2024-01-25T02:54:12;42.13;;;6.60;;
11962;SDS011;62678;52.130;5.584;2024-01-25T02:56:40;41.58;;;6.30;;
11962;SDS011;62678;52.130;5.584;2024-01-25T02:59:08;55.20;;;6.97;;
11962;SDS011;62678;52.130;5.584;2024-01-25T03:01:39;44.15;;;5.40;;
11962;SDS011;62678;52.130;5.584;2024-01-25T03:04:07;38.03;;;5.93;;
11962;SDS011;62678;52.130;5.584;2024-01-25T03:06:34;35.90;;;5.95;;
11962;SDS011;62678;52.130;5.584;2024-01-25T03:09:01;47.33;;;6.80;;
11962;SDS011;62678;52.130;5.584;2024-01-25T03:11:30;44.45;;;7.38;;
11962;SDS011;62678;52.130;5.584;2024-01-25T03:13:58;34.42;;;5.97;;
11962;SDS011;62678;52.130;5.584;2024-01-25T03:16:25;37.92;;;7.03;;
11962;SDS011;62678;52.130;5.584;2024-01-25T03:18:52;44.75;;;6.05;;
11962;SDS011;62678;52.130;5.584;2024-01-25T03:21:20;42.22;;;6.10;;
11962;SDS011;62678;52.130;5.584;2024-01-25T03:23:47;48.35;;;5.75;;
11962;SDS011;62678;52.130;5.584;2024-01-25T03:26:14;37.95;;;6.55;;
11962;SDS011;62678;52.130;5.584;2024-01-25T03:28:41;47.78;;;7.28;;
11962;SDS011;62678;52.130;5.584;2024-01-25T03:31:09;40.20;;;7.75;;
11962;SDS011;62678;52.130;5.584;2024-01-25T03:33:37;45.92;;;7.30;;
11962;SDS011;62678;52.130;5.584;2024-01-25T03:36:04;35.78;;;6.85;;
11962;SDS011;62678;52.130;5.584;2024-01-25T03:38:31;39.40;;;6.80;;
11962;SDS011;62678;52.130;5.584;2024-01-25T03:40:58;42.03;;;7.22;;
11962;SDS011;62678;52.130;5.584;2024-01-25T03:43:26;34.40;;;6.47;;
11962;SDS011;62678;52.130;5.584;2024-01-25T03:45:53;49.00;;;6.85;;
11962;SDS011;62678;52.130;5.584;2024-01-25T03:48:21;37.63;;;6.13;;
11962;SDS011;62678;52.130;5.584;2024-01-25T03:50:48;46.50;;;6.40;;
11962;SDS011;62678;52.130;5.584;2024-01-25T03:53:16;44.58;;;6.55;;
11962;SDS011;62678;52.130;5.584;2024-01-25T03:55:44;54.95;;;8.00;;
11962;SDS011;62678;52.130;5.584;2024-01-25T03:58:13;48.90;;;7.32;;
11962;SDS011;62678;52.130;5.584;2024-01-25T04:00:40;51.05;;;7.43;;
11962;SDS011;62678;52.130;5.584;2024-01-25T04:03:08;52.90;;;7.70;;
11962;SDS011;62678;52.130;5.584;2024-01-25T04:05:37;56.60;;;14.57;;
11962;SDS011;62678;52.130;5.584;2024-01-25T04:08:05;47.28;;;9.90;;
11962;SDS011;62678;52.130;5.584;2024-01-25T04:10:32;52.67;;;7.80;;
11962;SDS011;62678;52.130;5.584;2024-01-25T04:13:00;46.42;;;10.95;;
11962;SDS011;62678;52.130;5.584;2024-01-25T04:15:29;54.85;;;11.38;;
11962;SDS011;62678;52.130;5.584;2024-01-25T04:17:56;51.15;;;8.27;;
11962;SDS011;62678;52.130;5.584;2024-01-25T04:20:23;48.90;;;8.30;;
11962;SDS011;62678;52.130;5.584;2024-01-25T04:22:51;47.92;;;7.15;;
11962;SDS011;62678;52.130;5.584;2024-01-25T04:25:19;44.85;;;7.63;;
11962;SDS011;62678;52.130;5.584;2024-01-25T04:27:46;43.03;;;6.93;;
11962;SDS011;62678;52.130;5.584;2024-01-25T04:30:14;48.50;;;7.25;;
11962;SDS011;62678;52.130;5.584;2024-01-25T04:32:41;50.28;;;7.68;;
11962;SDS011;62678;52.130;5.584;2024-01-25T04:35:08;61.55;;;7.93;;
11962;SDS011;62678;52.130;5.584;2024-01-25T04:37:35;54.10;;;7.97;;
11962;SDS011;62678;52.130;5.584;2024-01-25T04:40:04;43.15;;;6.85;;
11962;SDS011;62678;52.130;5.584;2024-01-25T04:42:32;47.67;;;6.95;;
11962;SDS011;62678;52.130;5.584;2024-01-25T04:44:59;53.97;;;8.70;;
11962;SDS011;62678;52.130;5.584;2024-01-25T04:47:26;47.53;;;7.05;;
11962;SDS011;62678;52.130;5.584;2024-01-25T04:49:53;51.50;;;7.85;;
11962;SDS011;62678;52.130;5.584;2024-01-25T04:52:20;53.70;;;8.13;;
11962;SDS011;62678;52.130;5.584;2024-01-25T04:54:48;42.15;;;7.25;;
11962;SDS011;62678;52.130;5.584;2024-01-25T04:57:16;43.20;;;7.13;;
11962;SDS011;62678;52.130;5.584;2024-01-25T04:59:43;61.53;;;8.95;;
11962;SDS011;62678;52.130;5.584;2024-01-25T05:02:10;51.00;;;8.02;;
11962;SDS011;62678;52.130;5.584;2024-01-25T05:04:37;45.90;;;7.25;;
11962;SDS011;62678;52.130;5.584;2024-01-25T05:07:05;44.53;;;6.70;;
11962;SDS011;62678;52.130;5.584;2024-01-25T05:09:32;55.35;;;8.93;;
11962;SDS011;62678;52.130;5.584;2024-01-25T05:11:59;50.63;;;7.97;;
11962;SDS011;62678;52.130;5.584;2024-01-25T05:14:28;47.92;;;7.68;;
11962;SDS011;62678;52.130;5.584;2024-01-25T05:16:55;50.38;;;8.80;;
11962;SDS011;62678;52.130;5.584;2024-01-25T05:19:23;54.20;;;10.73;;
11962;SDS011;62678;52.130;5.584;2024-01-25T05:21:50;46.35;;;8.48;;
11962;SDS011;62678;52.130;5.584;2024-01-25T05:24:17;65.05;;;9.35;;
11962;SDS011;62678;52.130;5.584;2024-01-25T05:26:44;54.88;;;10.05;;
11962;SDS011;62678;52.130;5.584;2024-01-25T05:29:11;54.35;;;8.13;;
11962;SDS011;62678;52.130;5.584;2024-01-25T05:31:40;51.38;;;8.73;;
11962;SDS011;62678;52.130;5.584;2024-01-25T05:34:08;63.45;;;8.05;;
11962;SDS011;62678;52.130;5.584;2024-01-25T05:36:35;55.42;;;8.43;;
11962;SDS011;62678;52.130;5.584;2024-01-25T05:39:02;66.38;;;9.80;;
11962;SDS011;62678;52.130;5.584;2024-01-25T05:41:31;50.40;;;8.52;;
11962;SDS011;62678;52.130;5.584;2024-01-25T05:43:59;48.97;;;8.82;;
11962;SDS011;62678;52.130;5.584;2024-01-25T05:46:26;62.80;;;9.05;;
11962;SDS011;62678;52.130;5.584;2024-01-25T05:48:55;54.53;;;8.38;;
11962;SDS011;62678;52.130;5.584;2024-01-25T05:51:22;52.05;;;8.07;;
11962;SDS011;62678;52.130;5.584;2024-01-25T05:53:49;60.00;;;8.25;;
11962;SDS011;62678;52.130;5.584;2024-01-25T05:56:16;39.50;;;8.15;;
11962;SDS011;62678;52.130;5.584;2024-01-25T05:58:44;47.00;;;7.45;;
11962;SDS011;62678;52.130;5.584;2024-01-25T06:01:11;51.67;;;8.02;;
11962;SDS011;62678;52.130;5.584;2024-01-25T06:03:38;40.60;;;7.40;;
11962;SDS011;62678;52.130;5.584;2024-01-25T06:06:06;46.25;;;7.60;;
11962;SDS011;62678;52.130;5.584;2024-01-25T06:08:33;61.95;;;8.60;;
11962;SDS011;62678;52.130;5.584;2024-01-25T06:11:01;58.55;;;8.30;;
11962;SDS011;62678;52.130;5.584;2024-01-25T06:13:28;54.15;;;8.70;;
11962;SDS011;62678;52.130;5.584;2024-01-25T06:15:55;47.35;;;8.60;;
11962;SDS011;62678;52.130;5.584;2024-01-25T06:18:22;57.72;;;8.82;;
11962;SDS011;62678;52.130;5.584;2024-01-25T06:20:49;47.78;;;8.98;;
11962;SDS011;62678;52.130;5.584;2024-01-25T06:23:18;59.10;;;8.88;;
11962;SDS011;62678;52.130;5.584;2024-01-25T06:25:45;57.60;;;8.68;;
11962;SDS011;62678;52.130;5.584;2024-01-25T06:28:12;54.78;;;9.18;;
11962;SDS011;62678;52.130;5.584;2024-01-25T06:30:39;56.70;;;9.23;;
11962;SDS011;62678;52.130;5.584;2024-01-25T06:33:07;60.65;;;9.55;;
11962;SDS011;62678;52.130;5.584;2024-01-25T06:35:34;57.15;;;8.63;;
11962;SDS011;62678;52.130;5.584;2024-01-25T06:38:01;47.08;;;7.95;;
11962;SDS011;62678;52.130;5.584;2024-01-25T06:40:29;53.67;;;8.65;;
11962;SDS011;62678;52.130;5.584;2024-01-25T06:42:56;52.40;;;9.13;;
11962;SDS011;62678;52.130;5.584;2024-01-25T06:45:23;48.85;;;8.40;;
11962;SDS011;62678;52.130;5.584;2024-01-25T06:47:51;52.13;;;8.75;;
11962;SDS011;62678;52.130;5.584;2024-01-25T06:50:18;51.72;;;9.15;;
11962;SDS011;62678;52.130;5.584;2024-01-25T06:52:45;59.72;;;9.20;;
11962;SDS011;62678;52.130;5.584;2024-01-25T06:55:13;59.55;;;8.80;;
11962;SDS011;62678;52.130;5.584;2024-01-25T06:57:41;46.38;;;8.88;;
11962;SDS011;62678;52.130;5.584;2024-01-25T07:00:09;49.97;;;8.50;;
11962;SDS011;62678;52.130;5.584;2024-01-25T07:02:38;53.30;;;8.52;;
11962;SDS011;62678;52.130;5.584;2024-01-25T07:05:05;54.42;;;8.52;;
11962;SDS011;62678;52.130;5.584;2024-01-25T07:07:32;46.25;;;8.35;;
11962;SDS011;62678;52.130;5.584;2024-01-25T07:10:00;49.60;;;8.88;;
11962;SDS011;62678;52.130;5.584;2024-01-25T07:12:27;39.45;;;7.78;;
11962;SDS011;62678;52.130;5.584;2024-01-25T07:14:55;50.92;;;8.45;;
11962;SDS011;62678;52.130;5.584;2024-01-25T07:17:23;40.83;;;8.15;;
11962;SDS011;62678;52.130;5.584;2024-01-25T07:19:50;56.10;;;8.90;;
11962;SDS011;62678;52.130;5.584;2024-01-25T07:22:17;55.92;;;8.82;;
11962;SDS011;62678;52.130;5.584;2024-01-25T07:24:46;43.35;;;8.75;;
11962;SDS011;62678;52.130;5.584;2024-01-25T07:27:14;46.35;;;8.80;;
11962;SDS011;62678;52.130;5.584;2024-01-25T07:29:43;58.03;;;9.48;;
11962;SDS011;62678;52.130;5.584;2024-01-25T07:32:12;50.17;;;8.93;;
11962;SDS011;62678;52.130;5.584;2024-01-25T07:34:39;42.92;;;7.68;;
11962;SDS011;62678;52.130;5.584;2024-01-25T07:37:06;54.60;;;9.45;;
11962;SDS011;62678;52.130;5.584;2024-01-25T07:39:36;57.58;;;8.38;;
11962;SDS011;62678;52.130;5.584;2024-01-25T07:42:03;48.03;;;8.65;;
11962;SDS011;62678;52.130;5.584;2024-01-25T07:44:30;46.72;;;9.35;;
11962;SDS011;62678;52.130;5.584;2024-01-25T07:46:58;50.75;;;10.13;;
11962;SDS011;62678;52.130;5.584;2024-01-25T07:49:26;56.53;;;10.73;;
11962;SDS011;62678;52.130;5.584;2024-01-25T07:51:53;55.70;;;10.48;;
11962;SDS011;62678;52.130;5.584;2024-01-25T07:54:21;53.22;;;11.13;;
11962;SDS011;62678;52.130;5.584;2024-01-25T07:56:48;59.63;;;11.57;;
11962;SDS011;62678;52.130;5.584;2024-01-25T07:59:15;62.80;;;13.15;;
11962;SDS011;62678;52.130;5.584;2024-01-25T08:01:43;63.78;;;13.38;;
11962;SDS011;62678;52.130;5.584;2024-01-25T08:04:10;64.15;;;14.20;;
11962;SDS011;62678;52.130;5.584;2024-01-25T08:06:38;60.95;;;12.40;;
11962;SDS011;62678;52.130;5.584;2024-01-25T08:09:05;52.45;;;12.98;;
11962;SDS011;62678;52.130;5.584;2024-01-25T08:11:33;68.13;;;14.25;;
11962;SDS011;62678;52.130;5.584;2024-01-25T08:14:01;65.22;;;13.13;;
11962;SDS011;62678;52.130;5.584;2024-01-25T08:16:28;73.35;;;14.57;;
11962;SDS011;62678;52.130;5.584;2024-01-25T08:18:55;67.10;;;12.68;;
11962;SDS011;62678;52.130;5.584;2024-01-25T08:21:23;52.40;;;14.02;;
11962;SDS011;62678;52.130;5.584;2024-01-25T08:23:52;58.15;;;13.57;;
11962;SDS011;62678;52.130;5.584;2024-01-25T08:26:19;56.40;;;13.13;;
11962;SDS011;62678;52.130;5.584;2024-01-25T08:28:47;53.05;;;11.75;;
11962;SDS011;62678;52.130;5.584;2024-01-25T08:31:14;59.58;;;11.98;;
11962;SDS011;62678;52.130;5.584;2024-01-25T08:33:41;63.58;;;12.02;;
11962;SDS011;62678;52.130;5.584;2024-01-25T08:36:12;67.03;;;12.63;;
11962;SDS011;62678;52.130;5.584;2024-01-25T08:38:39;69.85;;;15.52;;
11962;SDS011;62678;52.130;5.584;2024-01-25T08:41:08;81.85;;;23.88;;
11962;SDS011;62678;52.130;5.584;2024-01-25T08:43:36;95.38;;;31.77;;
11962;SDS011;62678;52.130;5.584;2024-01-25T08:46:05;77.47;;;26.08;;
11962;SDS011;62678;52.130;5.584;2024-01-25T08:48:32;67.97;;;20.27;;
11962;SDS011;62678;52.130;5.584;2024-01-25T08:50:59;61.40;;;15.15;;
11962;SDS011;62678;52.130;5.584;2024-01-25T08:53:27;59.25;;;11.45;;
11962;SDS011;62678;52.130;5.584;2024-01-25T08:55:54;61.22;;;12.20;;
11962;SDS011;62678;52.130;5.584;2024-01-25T08:58:23;67.82;;;11.48;;
11962;SDS011;62678;52.130;5.584;2024-01-25T09:00:50;69.78;;;11.57;;
11962;SDS011;62678;52.130;5.584;2024-01-25T09:03:17;61.83;;;12.70;;
11962;SDS011;62678;52.130;5.584;2024-01-25T09:05:45;59.15;;;11.55;;
11962;SDS011;62678;52.130;5.584;2024-01-25T09:08:12;57.28;;;10.82;;
11962;SDS011;62678;52.130;5.584;2024-01-25T09:10:40;50.88;;;11.57;;
11962;SDS011;62678;52.130;5.584;2024-01-25T09:13:07;49.28;;;11.38;;
11962;SDS011;62678;52.130;5.584;2024-01-25T09:15:36;55.55;;;11.35;;
11962;SDS011;62678;52.130;5.584;2024-01-25T09:18:03;56.92;;;10.50;;
11962;SDS011;62678;52.130;5.584;2024-01-25T09:20:30;48.25;;;11.90;;
11962;SDS011;62678;52.130;5.584;2024-01-25T09:22:57;61.00;;;12.85;;
11962;SDS011;62678;52.130;5.584;2024-01-25T09:25:24;57.55;;;15.10;;
11962;SDS011;62678;52.130;5.584;2024-01-25T09:27:51;68.72;;;17.27;;
11962;SDS011;62678;52.130;5.584;2024-01-25T09:30:18;65.32;;;16.40;;
11962;SDS011;62678;52.130;5.584;2024-01-25T09:32:47;55.00;;;12.45;;
11962;SDS011;62678;52.130;5.584;2024-01-25T09:35:14;56.47;;;15.75;;
11962;SDS011;62678;52.130;5.584;2024-01-25T09:37:41;53.10;;;13.23;;
11962;SDS011;62678;52.130;5.584;2024-01-25T09:40:09;52.85;;;10.52;;
11962;SDS011;62678;52.130;5.584;2024-01-25T09:42:36;50.53;;;9.57;;
11962;SDS011;62678;52.130;5.584;2024-01-25T09:45:05;40.33;;;9.25;;
11962;SDS011;62678;52.130;5.584;2024-01-25T09:47:33;40.63;;;9.15;;
11962;SDS011;62678;52.130;5.584;2024-01-25T09:50:01;51.80;;;8.75;;
11962;SDS011;62678;52.130;5.584;2024-01-25T09:52:29;47.35;;;8.85;;
11962;SDS011;62678;52.130;5.584;2024-01-25T09:54:56;43.70;;;10.15;;
11962;SDS011;62678;52.130;5.584;2024-01-25T09:57:25;47.15;;;11.68;;
11962;SDS011;62678;52.130;5.584;2024-01-25T09:59:54;42.20;;;9.63;;
11962;SDS011;62678;52.130;5.584;2024-01-25T10:02:22;45.60;;;11.93;;
11962;SDS011;62678;52.130;5.584;2024-01-25T10:04:49;41.30;;;10.95;;
11962;SDS011;62678;52.130;5.584;2024-01-25T10:07:34;58.78;;;19.60;;
11962;SDS011;62678;52.130;5.584;2024-01-25T10:10:02;63.38;;;22.88;;
11962;SDS011;62678;52.130;5.584;2024-01-25T10:12:30;42.38;;;10.57;;
11962;SDS011;62678;52.130;5.584;2024-01-25T10:14:57;41.92;;;8.85;;
11962;SDS011;62678;52.130;5.584;2024-01-25T10:17:24;42.40;;;9.15;;
11962;SDS011;62678;52.130;5.584;2024-01-25T10:19:52;55.75;;;9.82;;
11962;SDS011;62678;52.130;5.584;2024-01-25T10:22:20;45.35;;;13.15;;
11962;SDS011;62678;52.130;5.584;2024-01-25T10:24:48;48.08;;;14.27;;
11962;SDS011;62678;52.130;5.584;2024-01-25T10:27:16;50.38;;;13.38;;
11962;SDS011;62678;52.130;5.584;2024-01-25T10:29:43;48.03;;;13.77;;
11962;SDS011;62678;52.130;5.584;2024-01-25T10:32:10;44.03;;;10.13;;
11962;SDS011;62678;52.130;5.584;2024-01-25T10:34:38;38.13;;;8.55;;
11962;SDS011;62678;52.130;5.584;2024-01-25T10:37:05;46.25;;;9.15;;
11962;SDS011;62678;52.130;5.584;2024-01-25T10:39:34;36.17;;;8.77;;
11962;SDS011;62678;52.130;5.584;2024-01-25T10:42:01;34.53;;;9.10;;
11962;SDS011;62678;52.130;5.584;2024-01-25T10:44:28;31.65;;;9.07;;
11962;SDS011;62678;52.130;5.584;2024-01-25T10:46:56;45.25;;;12.38;;
11962;SDS011;62678;52.130;5.584;2024-01-25T10:49:23;43.90;;;9.75;;
11962;SDS011;62678;52.130;5.584;2024-01-25T10:51:51;38.92;;;9.38;;
11962;SDS011;62678;52.130;5.584;2024-01-25T10:54:19;40.85;;;9.73;;
11962;SDS011;62678;52.130;5.584;2024-01-25T10:56:48;41.65;;;11.13;;
11962;SDS011;62678;52.130;5.584;2024-01-25T10:59:15;44.50;;;8.85;;
11962;SDS011;62678;52.130;5.584;2024-01-25T11:01:43;41.28;;;9.02;;
11962;SDS011;62678;52.130;5.584;2024-01-25T11:04:15;45.45;;;9.65;;
11962;SDS011;62678;52.130;5.584;2024-01-25T11:06:43;34.17;;;8.75;;
11962;SDS011;62678;52.130;5.584;2024-01-25T11:09:15;46.75;;;10.13;;
11962;SDS011;62678;52.130;5.584;2024-01-25T11:11:43;42.45;;;9.68;;
11962;SDS011;62678;52.130;5.584;2024-01-25T11:14:12;44.08;;;9.25;;
11962;SDS011;62678;52.130;5.584;2024-01-25T11:16:41;46.17;;;9.07;;
11962;SDS011;62678;52.130;5.584;2024-01-25T11:19:15;35.67;;;8.52;;
11962;SDS011;62678;52.130;5.584;2024-01-25T11:21:42;36.60;;;8.38;;
11962;SDS011;62678;52.130;5.584;2024-01-25T11:24:13;42.03;;;7.70;;
11962;SDS011;62678;52.130;5.584;2024-01-25T11:26:42;37.60;;;8.80;;
11962;SDS011;62678;52.130;5.584;2024-01-25T11:29:10;37.83;;;8.85;;
11962;SDS011;62678;52.130;5.584;2024-01-25T11:31:42;34.40;;;8.10;;
11962;SDS011;62678;52.130;5.584;2024-01-25T11:34:10;46.50;;;8.65;;
11962;SDS011;62678;52.130;5.584;2024-01-25T11:36:37;33.65;;;7.03;;
11962;SDS011;62678;52.130;5.584;2024-01-25T11:39:05;40.42;;;7.97;;
11962;SDS011;62678;52.130;5.584;2024-01-25T11:41:32;40.00;;;8.50;;
11962;SDS011;62678;52.130;5.584;2024-01-25T11:44:00;38.97;;;8.15;;
11962;SDS011;62678;52.130;5.584;2024-01-25T11:46:28;37.35;;;8.25;;
11962;SDS011;62678;52.130;5.584;2024-01-25T11:48:57;29.48;;;8.70;;
11962;SDS011;62678;52.130;5.584;2024-01-25T11:51:24;37.05;;;7.30;;
11962;SDS011;62678;52.130;5.584;2024-01-25T11:53:51;42.25;;;8.70;;
11962;SDS011;62678;52.130;5.584;2024-01-25T11:56:19;37.35;;;7.97;;
11962;SDS011;62678;52.130;5.584;2024-01-25T11:58:47;41.58;;;7.85;;
11962;SDS011;62678;52.130;5.584;2024-01-25T12:01:14;38.45;;;8.13;;
11962;SDS011;62678;52.130;5.584;2024-01-25T12:03:42;35.95;;;8.82;;
11962;SDS011;62678;52.130;5.584;2024-01-25T12:06:11;45.75;;;7.88;;
11962;SDS011;62678;52.130;5.584;2024-01-25T12:08:39;46.25;;;10.52;;
11962;SDS011;62678;52.130;5.584;2024-01-25T12:11:06;62.28;;;23.52;;
11962;SDS011;62678;52.130;5.584;2024-01-25T12:13:34;52.58;;;14.68;;
11962;SDS011;62678;52.130;5.584;2024-01-25T12:16:02;43.20;;;10.20;;
11962;SDS011;62678;52.130;5.584;2024-01-25T12:18:29;44.40;;;11.38;;
11962;SDS011;62678;52.130;5.584;2024-01-25T12:20:58;36.25;;;8.98;;
11962;SDS011;62678;52.130;5.584;2024-01-25T12:23:33;42.92;;;9.18;;
11962;SDS011;62678;52.130;5.584;2024-01-25T12:26:00;43.33;;;9.93;;
11962;SDS011;62678;52.130;5.584;2024-01-25T12:28:28;41.55;;;9.02;;
11962;SDS011;62678;52.130;5.584;2024-01-25T12:30:55;35.75;;;9.38;;
11962;SDS011;62678;52.130;5.584;2024-01-25T12:33:22;56.47;;;13.88;;
11962;SDS011;62678;52.130;5.584;2024-01-25T12:35:49;41.92;;;11.45;;
11962;SDS011;62678;52.130;5.584;2024-01-25T12:38:16;39.95;;;10.13;;
11962;SDS011;62678;52.130;5.584;2024-01-25T12:40:45;37.35;;;10.05;;
11962;SDS011;62678;52.130;5.584;2024-01-25T12:43:13;42.58;;;10.48;;
11962;SDS011;62678;52.130;5.584;2024-01-25T12:45:40;40.40;;;9.10;;
11962;SDS011;62678;52.130;5.584;2024-01-25T12:48:07;50.75;;;9.90;;
11962;SDS011;62678;52.130;5.584;2024-01-25T12:50:34;48.30;;;9.93;;
11962;SDS011;62678;52.130;5.584;2024-01-25T12:53:02;40.28;;;10.05;;
11962;SDS011;62678;52.130;5.584;2024-01-25T12:55:29;45.38;;;12.20;;
11962;SDS011;62678;52.130;5.584;2024-01-25T12:57:58;41.83;;;12.32;;
11962;SDS011;62678;52.130;5.584;2024-01-25T13:00:25;43.80;;;11.55;;
11962;SDS011;62678;52.130;5.584;2024-01-25T13:02:52;46.50;;;10.98;;
11962;SDS011;62678;52.130;5.584;2024-01-25T13:05:21;39.50;;;9.45;;
11962;SDS011;62678;52.130;5.584;2024-01-25T13:07:48;49.17;;;9.40;;
11962;SDS011;62678;52.130;5.584;2024-01-25T13:10:15;44.85;;;9.30;;
11962;SDS011;62678;52.130;5.584;2024-01-25T13:12:43;37.70;;;9.05;;
11962;SDS011;62678;52.130;5.584;2024-01-25T13:15:11;47.40;;;9.30;;
11962;SDS011;62678;52.130;5.584;2024-01-25T13:17:39;37.22;;;9.30;;
11962;SDS011;62678;52.130;5.584;2024-01-25T13:20:07;39.85;;;9.80;;
11962;SDS011;62678;52.130;5.584;2024-01-25T13:22:34;45.63;;;9.40;;
11962;SDS011;62678;52.130;5.584;2024-01-25T13:25:02;42.22;;;10.60;;
11962;SDS011;62678;52.130;5.584;2024-01-25T13:27:30;46.08;;;10.95;;
11962;SDS011;62678;52.130;5.584;2024-01-25T13:29:58;42.13;;;10.40;;
11962;SDS011;62678;52.130;5.584;2024-01-25T13:32:26;44.55;;;10.57;;
11962;SDS011;62678;52.130;5.584;2024-01-25T13:34:54;42.95;;;10.65;;
11962;SDS011;62678;52.130;5.584;2024-01-25T13:37:21;38.38;;;11.15;;
11962;SDS011;62678;52.130;5.584;2024-01-25T13:39:48;38.35;;;9.80;;
11962;SDS011;62678;52.130;5.584;2024-01-25T13:42:15;38.58;;;11.30;;
11962;SDS011;62678;52.130;5.584;2024-01-25T13:44:42;41.95;;;11.60;;
11962;SDS011;62678;52.130;5.584;2024-01-25T13:47:10;48.15;;;11.55;;
11962;SDS011;62678;52.130;5.584;2024-01-25T13:49:38;47.58;;;11.75;;
11962;SDS011;62678;52.130;5.584;2024-01-25T13:52:05;44.60;;;11.48;;
11962;SDS011;62678;52.130;5.584;2024-01-25T13:54:32;43.13;;;12.30;;
11962;SDS011;62678;52.130;5.584;2024-01-25T13:57:00;42.63;;;12.00;;
11962;SDS011;62678;52.130;5.584;2024-01-25T13:59:27;45.85;;;12.20;;
11962;SDS011;62678;52.130;5.584;2024-01-25T14:01:54;39.08;;;12.13;;
11962;SDS011;62678;52.130;5.584;2024-01-25T14:04:21;38.05;;;12.55;;
11962;SDS011;62678;52.130;5.584;2024-01-25T14:06:50;40.20;;;11.55;;
11962;SDS011;62678;52.130;5.584;2024-01-25T14:09:17;44.65;;;11.95;;
11962;SDS011;62678;52.130;5.584;2024-01-25T14:11:44;41.50;;;13.60;;
11962;SDS011;62678;52.130;5.584;2024-01-25T14:14:11;42.40;;;12.65;;
11962;SDS011;62678;52.130;5.584;2024-01-25T14:16:38;38.80;;;12.32;;
11962;SDS011;62678;52.130;5.584;2024-01-25T14:19:05;45.45;;;13.07;;
11962;SDS011;62678;52.130;5.584;2024-01-25T14:21:33;39.53;;;12.57;;
11962;SDS011;62678;52.130;5.584;2024-01-25T14:24:01;46.40;;;12.85;;
11962;SDS011;62678;52.130;5.584;2024-01-25T14:26:28;48.55;;;13.63;;
11962;SDS011;62678;52.130;5.584;2024-01-25T14:28:55;46.15;;;14.35;;
11962;SDS011;62678;52.130;5.584;2024-01-25T14:31:22;43.47;;;13.32;;
11962;SDS011;62678;52.130;5.584;2024-01-25T14:33:49;40.38;;;12.65;;